Time;durP1;ratioP1;P1;durP2;ratioP2;P2;SDS_P1;SDS_P2;PMS_P1;PMS_P2;Temp;Humidity;BMP_temperature;BMP_pressure;BME280_temperature;BME280_humidity;BME280_pressure;Samples;Min_cycle;Max_cycle;Signal;HPM_P1;HPM_P2
2021/03/07 00:01:23;;;;;;;17.80;12.93;;;0.50;99.90;;;;;;5033935;28;20183;-83
2021/03/07 00:03:49;;;;;;;16.03;12.13;;;0.30;99.90;;;;;;5016793;28;20520;-84
2021/03/07 00:06:15;;;;;;;15.07;12.30;;;0.30;99.90;;;;;;5034230;28;20809;-83
2021/03/07 00:08:44;;;;;;;18.00;13.80;;;0.50;99.90;;;;;;5034050;28;20415;-83
2021/03/07 00:11:12;;;;;;;14.77;11.38;;;0.40;99.90;;;;;;5032974;28;20393;-83
2021/03/07 00:13:38;;;;;;;18.70;12.60;;;0.00;99.90;;;;;;5026951;28;20205;-83
2021/03/07 00:16:06;;;;;;;19.23;12.43;;;0.20;99.90;;;;;;5053657;28;21140;-83
2021/03/07 00:18:32;;;;;;;17.92;12.45;;;0.40;99.90;;;;;;5052798;28;20431;-84
2021/03/07 00:20:58;;;;;;;16.63;12.37;;;0.20;99.90;;;;;;5052240;28;20643;-83
2021/03/07 00:23:26;;;;;;;19.10;13.02;;;0.50;99.90;;;;;;5053821;28;20566;-83
2021/03/07 00:25:55;;;;;;;16.60;10.63;;;0.60;99.90;;;;;;5053865;28;20573;-83
2021/03/07 00:28:23;;;;;;;13.10;10.48;;;-0.10;99.90;;;;;;5053737;28;20442;-83
2021/03/07 00:30:49;;;;;;;14.40;10.87;;;0.50;99.90;;;;;;5053896;28;20281;-84
2021/03/07 00:33:18;;;;;;;12.73;9.95;;;-0.10;99.90;;;;;;5036497;28;20436;-83
2021/03/07 00:35:49;;;;;;;13.00;9.65;;;-0.10;99.90;;;;;;5036843;28;20168;-83
2021/03/07 00:38:14;;;;;;;12.73;10.20;;;0.10;99.90;;;;;;5053473;28;20326;-83
2021/03/07 00:40:40;;;;;;;16.53;9.60;;;-0.20;99.90;;;;;;5052861;28;20541;-83
2021/03/07 00:43:06;;;;;;;13.68;9.23;;;0.20;99.90;;;;;;5052405;28;20443;-83
2021/03/07 00:45:33;;;;;;;14.23;10.17;;;0.40;99.90;;;;;;5053365;28;20516;-83
2021/03/07 00:47:59;;;;;;;12.40;9.50;;;0.30;99.90;;;;;;5052451;28;20443;-83
2021/03/07 00:50:28;;;;;;;14.57;9.65;;;-0.30;99.90;;;;;;5053531;28;20195;-83
2021/03/07 00:52:55;;;;;;;10.18;8.45;;;0.20;99.90;;;;;;5052408;28;20221;-83
2021/03/07 00:55:21;;;;;;;15.82;9.20;;;0.10;99.90;;;;;;5052694;28;20212;-83
2021/03/07 00:57:47;;;;;;;10.07;9.02;;;0.30;99.90;;;;;;5052387;28;20197;-83
2021/03/07 01:00:21;;;;;;;12.53;9.90;;;-0.20;99.90;;;;;;5054243;28;20188;-83
2021/03/07 01:02:47;;;;;;;11.07;8.85;;;0.00;99.90;;;;;;5057241;28;20409;-83
2021/03/07 01:05:16;;;;;;;12.75;8.55;;;0.20;99.90;;;;;;5057482;28;20233;-83
2021/03/07 01:07:42;;;;;;;12.68;8.60;;;-0.50;99.90;;;;;;5039720;28;20185;-83
2021/03/07 01:10:46;;;;;;;9.77;8.40;;;0.10;99.90;;;;;;5057201;28;20216;-83
2021/03/07 01:13:21;;;;;;;10.18;8.32;;;-0.10;99.90;;;;;;5047637;28;20207;-83
2021/03/07 01:15:47;;;;;;;16.20;8.77;;;-0.10;99.90;;;;;;5036528;28;20207;-83
2021/03/07 01:18:14;;;;;;;8.95;8.05;;;0.10;99.90;;;;;;5048492;28;20674;-83
2021/03/07 01:20:47;;;;;;;10.50;7.85;;;-0.10;99.90;;;;;;5057273;28;20249;-83
2021/03/07 01:23:14;;;;;;;12.27;9.02;;;0.00;99.90;;;;;;5057365;28;20304;-83
2021/03/07 01:25:40;;;;;;;11.52;8.25;;;-0.20;99.90;;;;;;5056025;28;20185;-83
2021/03/07 01:28:07;;;;;;;11.18;7.97;;;-0.70;99.90;;;;;;5056181;28;20185;-83
2021/03/07 01:30:37;;;;;;;8.75;6.72;;;0.00;99.90;;;;;;5057088;28;20209;-83
2021/03/07 01:33:06;;;;;;;12.20;7.80;;;-0.30;99.90;;;;;;5056254;28;20734;-83
2021/03/07 01:35:33;;;;;;;7.85;7.05;;;-0.10;99.90;;;;;;5056670;28;20582;-83
2021/03/07 01:37:59;;;;;;;9.20;7.28;;;-0.80;99.90;;;;;;5056926;28;20184;-83
2021/03/07 01:40:36;;;;;;;8.00;7.20;;;-0.30;99.90;;;;;;5055718;28;20193;-84
2021/03/07 01:43:06;;;;;;;13.15;8.23;;;-0.70;99.90;;;;;;5056679;28;20244;-83
2021/03/07 01:45:36;;;;;;;10.98;9.48;;;-0.40;99.90;;;;;;5055983;28;20579;-83
2021/03/07 01:48:07;;;;;;;11.38;9.40;;;-0.20;99.90;;;;;;5039224;28;20183;-83
2021/03/07 01:50:36;;;;;;;10.82;9.55;;;-0.60;99.90;;;;;;5055860;28;20193;-83
2021/03/07 01:53:02;;;;;;;13.30;8.82;;;-1.00;99.90;;;;;;5055410;28;20320;-83
2021/03/07 01:55:36;;;;;;;14.35;10.00;;;-0.70;99.90;;;;;;5056602;28;20191;-83
2021/03/07 01:58:19;;;;;;;13.45;9.75;;;-0.50;99.90;;;;;;5055494;28;20601;-83
2021/03/07 02:00:49;;;;;;;13.98;9.13;;;-0.60;99.90;;;;;;5056593;28;20195;-83
2021/03/07 02:03:15;;;;;;;11.57;9.00;;;-0.70;99.90;;;;;;5056419;28;20220;-83
2021/03/07 02:05:42;;;;;;;11.80;9.60;;;-1.00;99.90;;;;;;5056509;28;20266;-83
2021/03/07 02:08:12;;;;;;;13.73;9.70;;;-0.40;99.90;;;;;;5055556;28;20404;-83
2021/03/07 02:10:45;;;;;;;10.85;9.40;;;-0.70;99.90;;;;;;5056347;28;20195;-83
2021/03/07 02:13:17;;;;;;;14.55;9.43;;;-0.50;99.90;;;;;;5039505;28;20192;-83
2021/03/07 02:15:48;;;;;;;12.13;9.80;;;-0.80;99.90;;;;;;5035253;28;20189;-83
2021/03/07 02:18:14;;;;;;;11.52;9.00;;;-0.70;99.90;;;;;;5035187;28;20689;-83
2021/03/07 02:20:50;;;;;;;15.65;8.80;;;-1.00;99.90;;;;;;5036342;28;20186;-83
2021/03/07 02:23:21;;;;;;;13.82;9.25;;;-0.90;99.90;;;;;;5036157;28;20304;-83
2021/03/07 02:25:49;;;;;;;13.02;9.27;;;-1.30;99.90;;;;;;5035210;28;20188;-83
2021/03/07 02:28:23;;;;;;;14.30;9.63;;;-0.80;99.90;;;;;;5019223;28;20213;-83
2021/03/07 02:30:52;;;;;;;13.10;8.65;;;-1.40;99.90;;;;;;5035893;28;20185;-83
2021/03/07 02:33:27;;;;;;;11.40;9.10;;;-1.30;99.90;;;;;;5034782;28;20182;-83
2021/03/07 02:36:07;;;;;;;15.52;9.25;;;-1.00;99.90;;;;;;5034735;28;20534;-83
2021/03/07 02:38:35;;;;;;;12.15;8.93;;;-0.90;99.90;;;;;;5034856;28;20175;-83
2021/03/07 02:41:10;;;;;;;14.50;9.45;;;-1.40;99.90;;;;;;5035687;28;20256;-84
2021/03/07 02:43:45;;;;;;;13.70;9.50;;;-1.50;99.90;;;;;;5035826;28;20224;-83
2021/03/07 02:46:17;;;;;;;14.18;8.80;;;-1.30;99.90;;;;;;5034910;28;20181;-83
2021/03/07 02:48:53;;;;;;;13.43;8.43;;;-1.30;99.90;;;;;;5035532;28;20526;-84
2021/03/07 02:51:20;;;;;;;11.07;8.70;;;-1.60;99.90;;;;;;5035446;28;20170;-83
2021/03/07 02:53:46;;;;;;;11.38;9.13;;;-1.70;99.90;;;;;;5050652;28;20229;-83
2021/03/07 02:56:15;;;;;;;11.50;9.02;;;-1.80;99.90;;;;;;5037927;28;20691;-84
2021/03/07 02:58:45;;;;;;;12.10;9.57;;;-1.30;99.90;;;;;;5054517;28;20281;-84
2021/03/07 03:01:17;;;;;;;9.48;8.48;;;-1.20;99.90;;;;;;5055058;28;20177;-84
2021/03/07 03:03:45;;;;;;;11.13;9.32;;;-1.30;99.90;;;;;;5055692;28;20283;-83
2021/03/07 03:06:16;;;;;;;9.40;8.43;;;-1.10;99.90;;;;;;5055179;28;20259;-83
2021/03/07 03:08:46;;;;;;;10.68;8.25;;;-1.30;99.90;;;;;;5054962;28;20180;-83
2021/03/07 03:11:13;;;;;;;13.50;9.20;;;-1.30;99.90;;;;;;5054019;28;20324;-83
2021/03/07 03:13:39;;;;;;;10.82;8.43;;;-1.20;99.90;;;;;;5054203;28;20192;-83
2021/03/07 03:16:06;;;;;;;15.63;9.35;;;-1.10;99.90;;;;;;5021246;28;20194;-84
2021/03/07 03:18:34;;;;;;;11.32;9.30;;;-1.20;99.90;;;;;;5055079;28;20188;-83
2021/03/07 03:21:08;;;;;;;15.13;9.70;;;-1.20;99.90;;;;;;5054807;28;20259;-83
2021/03/07 03:23:35;;;;;;;11.00;9.23;;;-1.30;99.90;;;;;;5053028;28;20196;-83
2021/03/07 03:26:01;;;;;;;9.52;8.63;;;-1.30;99.90;;;;;;5054528;28;20184;-84
2021/03/07 03:28:27;;;;;;;12.27;9.45;;;-1.10;99.90;;;;;;5053780;28;20177;-83
2021/03/07 03:30:59;;;;;;;14.55;10.23;;;-1.60;99.90;;;;;;5053742;28;20180;-83
2021/03/07 03:33:26;;;;;;;15.15;10.02;;;-1.10;99.90;;;;;;5054623;28;20234;-84
2021/03/07 03:35:56;;;;;;;14.63;9.70;;;-1.60;99.90;;;;;;5054523;28;20190;-84
2021/03/07 03:38:30;;;;;;;14.38;9.98;;;-1.00;99.90;;;;;;5053782;28;20197;-83
2021/03/07 03:40:57;;;;;;;13.32;9.07;;;-1.10;99.90;;;;;;5053525;28;20547;-84
2021/03/07 03:43:24;;;;;;;23.65;10.13;;;-1.10;99.90;;;;;;5054080;28;20208;-83
2021/03/07 03:45:58;;;;;;;15.45;10.30;;;-1.20;99.90;;;;;;5054368;28;20695;-84
2021/03/07 03:48:32;;;;;;;14.32;8.93;;;-1.50;99.90;;;;;;5054364;28;20226;-83
2021/03/07 03:51:02;;;;;;;10.25;9.13;;;-1.30;99.90;;;;;;5053665;28;20226;-84
2021/03/07 03:53:31;;;;;;;11.82;9.38;;;-1.40;99.90;;;;;;5067992;28;20242;-84
2021/03/07 03:56:01;;;;;;;14.38;10.13;;;-1.40;99.90;;;;;;5074013;28;20260;-84
2021/03/07 03:58:33;;;;;;;9.73;8.73;;;-1.90;99.90;;;;;;5074090;28;20171;-84
2021/03/07 04:01:03;;;;;;;11.77;9.10;;;-1.30;99.90;;;;;;5074424;28;20673;-84
2021/03/07 04:03:30;;;;;;;11.75;8.68;;;-1.10;99.90;;;;;;5074206;28;20251;-85
2021/03/07 04:05:57;;;;;;;12.13;8.82;;;-1.30;99.90;;;;;;5074255;28;20301;-84
2021/03/07 04:08:24;;;;;;;12.77;8.85;;;-1.60;99.90;;;;;;5074349;28;20184;-84
2021/03/07 04:10:53;;;;;;;10.77;9.65;;;-1.50;99.90;;;;;;5074218;28;20184;-83
2021/03/07 04:13:27;;;;;;;17.60;10.13;;;-1.50;99.90;;;;;;5055948;28;20196;-84
2021/03/07 04:15:56;;;;;;;13.52;9.38;;;-1.90;99.90;;;;;;5074225;28;20167;-84
2021/03/07 04:18:26;;;;;;;10.85;9.40;;;-1.60;99.90;;;;;;5073817;28;20279;-84
2021/03/07 04:20:52;;;;;;;17.23;9.45;;;-1.50;99.90;;;;;;5073815;28;20249;-84
2021/03/07 04:23:19;;;;;;;9.95;8.90;;;-1.60;99.90;;;;;;5074102;28;20597;-83
2021/03/07 04:25:47;;;;;;;13.05;8.07;;;-2.10;99.90;;;;;;5056540;28;20187;-84
2021/03/07 04:28:21;;;;;;;17.42;10.02;;;-1.90;99.90;;;;;;5040397;28;20195;-84
2021/03/07 04:30:47;;;;;;;11.23;8.80;;;-1.50;99.90;;;;;;5074042;28;20184;-84
2021/03/07 04:33:13;;;;;;;12.30;9.43;;;-1.50;99.90;;;;;;5056393;28;20179;-83
2021/03/07 04:35:40;;;;;;;13.43;9.65;;;-1.50;99.90;;;;;;5073744;28;20542;-85
2021/03/07 04:38:09;;;;;;;11.80;8.98;;;-1.70;99.90;;;;;;5056098;28;20233;-84
2021/03/07 04:40:43;;;;;;;20.88;9.50;;;-1.40;99.90;;;;;;5073924;28;20554;-84
2021/03/07 04:43:09;;;;;;;10.48;8.30;;;-1.30;99.90;;;;;;5055935;28;20234;-84
2021/03/07 04:45:36;;;;;;;13.15;8.55;;;-1.50;99.90;;;;;;5056485;28;20180;-84
2021/03/07 04:48:05;;;;;;;10.52;8.70;;;-1.30;99.90;;;;;;5055954;28;20669;-84
2021/03/07 04:50:31;;;;;;;11.10;7.93;;;-1.70;99.90;;;;;;5056381;28;20196;-84
2021/03/07 04:52:57;;;;;;;9.45;8.00;;;-1.60;99.90;;;;;;5055763;28;20535;-84
2021/03/07 04:55:23;;;;;;;13.90;10.07;;;-1.60;99.90;;;;;;5072848;28;20179;-84
2021/03/07 04:57:49;;;;;;;14.03;8.90;;;-1.60;99.90;;;;;;5056028;28;20419;-84
2021/03/07 05:00:16;;;;;;;15.95;9.30;;;-2.20;99.90;;;;;;5073730;28;20516;-84
2021/03/07 05:02:46;;;;;;;12.68;8.98;;;-1.80;99.90;;;;;;5056054;28;20581;-84
2021/03/07 05:05:12;;;;;;;13.52;9.38;;;-1.50;99.90;;;;;;5073680;28;20214;-84
2021/03/07 05:07:38;;;;;;;11.57;9.20;;;-1.50;99.90;;;;;;5056102;28;20191;-84
2021/03/07 05:10:08;;;;;;;9.70;8.30;;;-1.70;99.90;;;;;;5056097;28;20180;-84
2021/03/07 05:12:38;;;;;;;14.93;9.38;;;-1.60;99.90;;;;;;5053323;28;20184;-84
2021/03/07 05:15:07;;;;;;;12.13;9.40;;;-2.40;99.90;;;;;;5036136;28;20521;-84
2021/03/07 05:17:33;;;;;;;11.27;10.13;;;-1.90;99.90;;;;;;5053306;28;20196;-84
2021/03/07 05:20:00;;;;;;;12.98;9.32;;;-1.70;99.90;;;;;;5036218;28;20181;-84
2021/03/07 05:22:26;;;;;;;11.30;9.18;;;-2.00;99.90;;;;;;5035759;28;20212;-84
2021/03/07 05:24:52;;;;;;;11.23;9.38;;;-1.90;99.90;;;;;;5035689;28;20599;-84
2021/03/07 05:27:26;;;;;;;9.80;8.75;;;-1.90;99.90;;;;;;5020452;28;20558;-84
2021/03/07 05:29:59;;;;;;;11.73;9.50;;;-1.80;99.90;;;;;;5053122;28;20176;-84
2021/03/07 05:32:24;;;;;;;11.80;9.35;;;-2.00;99.90;;;;;;5035782;28;20210;-84
2021/03/07 05:34:55;;;;;;;10.75;8.50;;;-2.30;99.90;;;;;;5036288;28;20197;-84
2021/03/07 05:37:25;;;;;;;12.43;9.48;;;-1.80;99.90;;;;;;5052954;28;20565;-84
2021/03/07 05:39:51;;;;;;;13.18;8.00;;;-2.00;99.90;;;;;;5035658;28;20165;-84
2021/03/07 05:42:22;;;;;;;11.57;9.45;;;-1.90;99.90;;;;;;5053039;28;20211;-84
2021/03/07 05:44:49;;;;;;;14.88;9.60;;;-2.00;99.90;;;;;;5035815;28;20212;-84
2021/03/07 05:47:17;;;;;;;12.57;8.85;;;-2.00;99.90;;;;;;5053918;28;20185;-84
2021/03/07 05:49:45;;;;;;;10.05;9.00;;;-2.40;99.90;;;;;;5056515;28;20676;-84
2021/03/07 05:52:14;;;;;;;11.68;8.43;;;-2.00;99.90;;;;;;5023314;28;20239;-84
2021/03/07 05:54:43;;;;;;;14.32;10.27;;;-1.80;99.90;;;;;;5023248;28;20582;-85
2021/03/07 05:57:10;;;;;;;13.70;9.13;;;-1.90;99.90;;;;;;5056465;28;20509;-85
2021/03/07 05:59:37;;;;;;;12.90;8.75;;;-2.00;99.90;;;;;;5022873;28;20207;-84
2021/03/07 06:02:03;;;;;;;9.50;8.32;;;-1.90;99.90;;;;;;5056351;28;20180;-84
2021/03/07 06:04:33;;;;;;;11.35;7.70;;;-1.90;99.90;;;;;;5056590;28;20211;-85
2021/03/07 06:06:59;;;;;;;13.60;8.98;;;-2.10;99.90;;;;;;5056745;28;20196;-85
2021/03/07 06:09:29;;;;;;;15.30;9.03;;;-1.90;99.90;;;;;;5056681;28;20492;-84
2021/03/07 06:11:57;;;;;;;13.20;8.68;;;-2.10;99.90;;;;;;5039035;28;20431;-84
2021/03/07 06:14:28;;;;;;;14.07;9.40;;;-2.00;99.90;;;;;;5056205;28;20543;-84
2021/03/07 06:17:06;;;;;;;12.23;9.30;;;-2.50;99.90;;;;;;5038941;28;20195;-84
2021/03/07 06:19:56;;;;;;;14.68;9.90;;;-2.10;99.90;;;;;;5039021;28;20243;-84
2021/03/07 06:22:22;;;;;;;10.75;8.95;;;-1.90;99.90;;;;;;5056336;28;20169;-85
2021/03/07 06:24:49;;;;;;;12.38;9.52;;;-2.40;99.90;;;;;;5056424;28;20281;-85
2021/03/07 06:27:18;;;;;;;11.45;8.90;;;-2.00;99.90;;;;;;5056300;28;20285;-84
2021/03/07 06:30:05;;;;;;;11.25;9.40;;;-2.20;99.90;;;;;;5006149;28;20180;-85
2021/03/07 06:32:35;;;;;;;11.23;9.10;;;-2.00;99.90;;;;;;5038435;28;20542;-84
2021/03/07 06:35:08;;;;;;;13.55;9.45;;;-2.20;99.90;;;;;;5056151;28;20179;-85
2021/03/07 06:37:49;;;;;;;13.30;8.80;;;-2.10;99.90;;;;;;5042111;28;20219;-84
2021/03/07 06:40:29;;;;;;;12.25;9.65;;;-2.20;99.90;;;;;;5053089;28;20191;-85
2021/03/07 06:42:59;;;;;;;9.90;8.90;;;-2.30;99.90;;;;;;5057135;28;20196;-84
2021/03/07 06:45:38;;;;;;;12.35;8.82;;;-2.40;99.90;;;;;;5074526;28;20212;-85
2021/03/07 06:48:05;;;;;;;11.55;8.75;;;-2.40;99.90;;;;;;5064326;28;20631;-84
2021/03/07 06:50:33;;;;;;;12.95;8.65;;;-1.80;99.90;;;;;;5055581;28;20664;-84
2021/03/07 06:53:00;;;;;;;13.15;9.48;;;-1.80;99.90;;;;;;5063667;28;20705;-84
2021/03/07 06:55:58;;;;;;;13.25;8.90;;;-1.80;99.90;;;;;;5068405;28;20202;-84
2021/03/07 06:58:32;;;;;;;11.98;9.23;;;-1.80;99.90;;;;;;5057977;28;20260;-87
2021/03/07 07:01:00;;;;;;;13.52;9.93;;;-1.90;99.90;;;;;;5074612;28;20520;-87
2021/03/07 07:03:31;;;;;;;14.02;10.02;;;-1.60;99.90;;;;;;5070251;28;20218;-87
2021/03/07 07:05:59;;;;;;;11.05;8.73;;;-1.70;99.90;;;;;;5043969;28;20538;-87
2021/03/07 07:08:48;;;;;;;11.93;9.52;;;-1.60;99.90;;;;;;5047341;28;20188;-87
2021/03/07 07:11:20;;;;;;;18.90;8.57;;;-1.20;99.90;;;;;;5035908;28;20191;-87
2021/03/07 07:13:54;;;;;;;12.02;9.27;;;-1.10;99.90;;;;;;5048756;28;20180;-87
2021/03/07 07:16:23;;;;;;;11.93;9.10;;;-1.40;99.90;;;;;;5055716;28;20231;-86
2021/03/07 07:18:52;;;;;;;12.35;9.57;;;-1.10;99.90;;;;;;5069046;28;20278;-86
2021/03/07 07:21:20;;;;;;;12.67;9.70;;;-1.20;99.90;;;;;;5057142;28;20330;-86
2021/03/07 07:23:54;;;;;;;11.70;10.02;;;-1.20;99.90;;;;;;5046023;28;20536;-86
2021/03/07 07:26:25;;;;;;;16.27;11.52;;;-0.80;99.90;;;;;;5051108;28;20640;-86
2021/03/07 07:28:51;;;;;;;15.60;11.27;;;-0.90;99.90;;;;;;5048303;28;20189;-85
2021/03/07 07:31:39;;;;;;;16.30;10.75;;;-0.70;99.90;;;;;;5065223;28;20272;-83
2021/03/07 07:34:22;;;;;;;16.30;11.45;;;-0.40;99.90;;;;;;5056946;28;20192;-85
2021/03/07 07:36:56;;;;;;;14.95;9.80;;;-0.50;99.90;;;;;;5056981;28;20242;-85
2021/03/07 07:39:34;;;;;;;16.75;11.05;;;-0.80;99.90;;;;;;5040449;28;20629;-84
2021/03/07 07:42:34;;;;;;;17.35;11.93;;;-0.20;99.90;;;;;;5072469;28;20192;-85
2021/03/07 07:45:14;;;;;;;13.45;11.07;;;-0.10;99.90;;;;;;5045314;28;20265;-84
2021/03/07 07:47:47;;;;;;;13.45;10.95;;;0.10;99.90;;;;;;5031168;28;20195;-85
2021/03/07 07:50:30;;;;;;;15.70;12.07;;;0.10;99.90;;;;;;5056308;28;20198;-84
2021/03/07 07:53:00;;;;;;;12.43;10.73;;;0.10;99.90;;;;;;5044904;28;20229;-84
2021/03/07 07:55:48;;;;;;;12.82;11.07;;;-0.10;99.90;;;;;;5050244;28;20188;-84
2021/03/07 07:58:37;;;;;;;15.10;11.38;;;0.40;99.90;;;;;;5056270;28;20249;-84
2021/03/07 08:01:13;;;;;;;17.75;11.88;;;0.30;99.90;;;;;;5019927;28;20198;-84
2021/03/07 08:03:43;;;;;;;17.00;12.45;;;0.40;99.90;;;;;;5029857;28;20228;-84
2021/03/07 08:06:35;;;;;;;17.73;13.55;;;0.90;99.90;;;;;;5056327;28;20200;-84
2021/03/07 08:09:39;;;;;;;17.83;13.55;;;1.10;99.90;;;;;;5039590;28;20269;-83
2021/03/07 08:12:42;;;;;;;18.65;13.68;;;1.10;99.90;;;;;;5013224;28;20266;-84
2021/03/07 08:15:26;;;;;;;18.02;13.15;;;1.50;99.90;;;;;;5036663;28;20206;-83
2021/03/07 08:17:58;;;;;;;15.60;12.95;;;1.80;99.90;;;;;;5047849;28;20197;-83
2021/03/07 08:20:43;;;;;;;14.43;12.75;;;1.90;99.90;;;;;;5035248;28;20245;-83
2021/03/07 08:23:21;;;;;;;12.95;11.63;;;2.20;99.90;;;;;;5019788;28;20211;-83
2021/03/07 08:25:53;;;;;;;15.55;13.48;;;2.50;99.90;;;;;;5022354;28;20194;-82
2021/03/07 08:28:28;;;;;;;16.42;13.02;;;2.10;99.90;;;;;;5062515;28;20231;-83
2021/03/07 08:30:54;;;;;;;13.25;11.35;;;2.70;99.90;;;;;;5020362;28;20214;-83
2021/03/07 08:33:39;;;;;;;13.90;11.75;;;2.70;99.90;;;;;;5055099;28;20202;-82
2021/03/07 08:36:23;;;;;;;20.13;12.43;;;3.10;99.90;;;;;;5035318;28;20191;-82
2021/03/07 08:38:49;;;;;;;12.85;11.55;;;3.40;99.90;;;;;;5051279;28;20191;-83
2021/03/07 08:41:23;;;;;;;14.82;11.65;;;3.40;99.90;;;;;;5062908;28;20203;-83
2021/03/07 08:44:00;;;;;;;14.88;11.45;;;3.60;99.90;;;;;;5021122;28;20285;-82
2021/03/07 08:46:48;;;;;;;14.73;12.07;;;3.80;99.90;;;;;;5045350;28;20277;-83
2021/03/07 08:49:25;;;;;;;12.25;10.95;;;4.00;99.90;;;;;;5038984;28;20286;-83
2021/03/07 08:51:58;;;;;;;13.27;11.18;;;4.10;99.90;;;;;;5038252;28;20199;-83
2021/03/07 08:54:31;;;;;;;11.98;10.70;;;4.30;99.90;;;;;;5026938;28;20294;-83
2021/03/07 08:57:05;;;;;;;11.45;9.80;;;4.50;99.90;;;;;;5044190;28;20192;-83
2021/03/07 08:59:36;;;;;;;13.38;11.98;;;4.60;99.90;;;;;;5043645;28;20197;-83
2021/03/07 09:02:05;;;;;;;11.40;10.15;;;4.70;99.90;;;;;;5054875;28;20184;-82
2021/03/07 09:04:37;;;;;;;14.15;11.13;;;4.80;99.90;;;;;;5012179;28;20756;-83
2021/03/07 09:07:06;;;;;;;11.77;10.57;;;5.00;99.90;;;;;;5069072;28;20199;-83
2021/03/07 09:09:43;;;;;;;11.50;10.40;;;5.10;99.90;;;;;;5031311;28;20240;-83
2021/03/07 09:12:16;;;;;;;11.70;10.48;;;5.30;99.90;;;;;;5034957;28;20196;-82
2021/03/07 09:14:47;;;;;;;14.95;12.10;;;5.40;99.90;;;;;;5034068;28;20223;-82
2021/03/07 09:17:22;;;;;;;12.50;10.65;;;5.60;99.90;;;;;;5019042;28;20196;-83
2021/03/07 09:19:50;;;;;;;12.75;11.45;;;5.80;99.90;;;;;;5035951;28;20196;-82
2021/03/07 09:22:30;;;;;;;12.07;10.88;;;5.90;99.90;;;;;;5036300;28;20223;-82
2021/03/07 09:25:10;;;;;;;11.35;10.25;;;6.00;99.90;;;;;;5062142;28;20226;-83
2021/03/07 09:27:40;;;;;;;11.52;10.40;;;6.30;99.90;;;;;;5030472;28;20296;-83
2021/03/07 09:30:19;;;;;;;14.20;12.52;;;6.50;99.90;;;;;;5048022;28;20234;-83
2021/03/07 09:32:50;;;;;;;11.80;10.77;;;6.50;99.90;;;;;;5035533;28;20210;-82
2021/03/07 09:35:24;;;;;;;13.10;11.00;;;6.60;99.90;;;;;;5055707;28;20214;-82
2021/03/07 09:38:08;;;;;;;11.82;10.63;;;6.80;99.90;;;;;;5041711;28;20191;-82
2021/03/07 09:40:39;;;;;;;8.35;7.55;;;7.10;99.90;;;;;;5055877;28;20193;-82
2021/03/07 09:43:08;;;;;;;9.30;7.85;;;6.90;98.80;;;;;;5069906;28;20288;-83
2021/03/07 09:45:40;;;;;;;9.88;8.20;;;7.10;99.20;;;;;;5058757;28;20215;-83
2021/03/07 09:48:07;;;;;;;10.38;9.18;;;7.10;98.60;;;;;;5056285;28;20246;-82
2021/03/07 09:50:36;;;;;;;8.45;7.65;;;7.10;98.80;;;;;;5056248;28;20196;-83
2021/03/07 09:53:04;;;;;;;9.00;8.10;;;7.10;98.40;;;;;;5038175;28;20232;-82
2021/03/07 09:55:40;;;;;;;11.35;8.15;;;7.20;98.60;;;;;;5038192;28;20193;-82
2021/03/07 09:58:11;;;;;;;8.80;8.00;;;7.20;98.20;;;;;;5047460;28;20195;-82
2021/03/07 10:00:47;;;;;;;13.47;8.20;;;7.00;98.00;;;;;;5038697;28;20704;-82
2021/03/07 10:03:32;;;;;;;9.10;8.20;;;7.20;97.90;;;;;;5037762;28;20434;-82
2021/03/07 10:06:17;;;;;;;8.38;7.60;;;7.40;97.10;;;;;;5044483;28;20426;-82
2021/03/07 10:09:02;;;;;;;10.50;7.07;;;7.30;96.80;;;;;;5064137;28;20216;-82
2021/03/07 10:11:34;;;;;;;8.20;6.20;;;7.40;96.60;;;;;;5038573;28;20802;-82
2021/03/07 10:14:03;;;;;;;7.63;6.75;;;7.60;95.90;;;;;;5039462;28;20455;-82
2021/03/07 10:16:34;;;;;;;7.23;6.30;;;7.80;95.70;;;;;;5050803;28;20235;-82
2021/03/07 10:19:12;;;;;;;8.33;7.20;;;7.90;95.20;;;;;;5065983;28;20512;-82
2021/03/07 10:21:44;;;;;;;8.10;6.80;;;7.90;95.00;;;;;;5062235;28;20884;-83
2021/03/07 10:24:22;;;;;;;7.53;6.80;;;8.00;94.70;;;;;;5023793;28;20804;-83
2021/03/07 10:26:59;;;;;;;7.80;7.10;;;8.10;94.10;;;;;;5045084;28;20436;-84
2021/03/07 10:29:32;;;;;;;8.65;6.95;;;8.00;93.70;;;;;;5063762;28;20432;-82
2021/03/07 10:32:18;;;;;;;10.07;8.97;;;8.00;93.20;;;;;;5063272;28;20180;-82
2021/03/07 10:34:51;;;;;;;11.07;10.17;;;8.00;93.80;;;;;;5054925;28;20460;-83
2021/03/07 10:37:42;;;;;;;8.83;8.13;;;8.30;94.70;;;;;;5063870;28;20444;-82
2021/03/07 10:40:14;;;;;;;12.50;11.40;;;8.60;92.90;;;;;;5059427;28;20428;-83
2021/03/07 10:42:44;;;;;;;9.75;8.93;;;8.30;92.60;;;;;;5042963;28;20426;-82
2021/03/07 10:45:21;;;;;;;11.30;10.10;;;8.20;92.20;;;;;;5056067;28;20269;-83
2021/03/07 10:48:01;;;;;;;9.17;8.37;;;8.00;92.80;;;;;;5062000;28;20907;-82
2021/03/07 10:50:28;;;;;;;19.50;13.18;;;7.60;92.90;;;;;;5038767;28;20492;-82
2021/03/07 10:52:54;;;;;;;9.82;8.88;;;7.50;93.60;;;;;;5054571;28;20230;-82
2021/03/07 10:55:26;;;;;;;10.90;9.80;;;7.40;93.30;;;;;;5054847;28;20534;-82
2021/03/07 10:57:59;;;;;;;14.77;11.68;;;7.20;93.80;;;;;;5021368;28;20456;-82
2021/03/07 11:00:30;;;;;;;13.55;12.25;;;7.10;93.70;;;;;;5054703;28;20258;-82
2021/03/07 11:02:58;;;;;;;12.68;11.48;;;6.90;93.60;;;;;;5059068;28;20223;-82
2021/03/07 11:05:29;;;;;;;14.00;12.63;;;6.70;93.90;;;;;;5056708;28;20601;-82
2021/03/07 11:07:54;;;;;;;18.73;15.82;;;6.60;94.10;;;;;;5037435;28;20195;-83
2021/03/07 11:10:23;;;;;;;12.45;11.23;;;6.60;94.10;;;;;;5049269;28;20210;-82
2021/03/07 11:12:50;;;;;;;11.65;10.52;;;6.90;94.50;;;;;;5073747;28;20198;-83
2021/03/07 11:15:16;;;;;;;11.30;10.25;;;7.20;94.20;;;;;;5039643;28;20204;-82
2021/03/07 11:17:42;;;;;;;9.68;8.77;;;7.60;93.80;;;;;;5020335;28;20180;-82
2021/03/07 11:20:13;;;;;;;10.23;9.13;;;7.90;92.60;;;;;;5037014;28;20192;-82
2021/03/07 11:22:42;;;;;;;9.27;8.47;;;8.20;91.70;;;;;;5037043;28;20566;-83
2021/03/07 11:25:13;;;;;;;9.97;8.97;;;8.10;90.00;;;;;;5036685;28;20471;-83
2021/03/07 11:27:41;;;;;;;12.27;9.85;;;8.20;89.30;;;;;;5045556;28;20846;-82
2021/03/07 11:30:12;;;;;;;11.27;10.27;;;8.00;87.20;;;;;;5020561;28;20309;-83
2021/03/07 11:32:38;;;;;;;11.50;10.40;;;7.80;88.20;;;;;;5042202;28;20517;-80
2021/03/07 11:35:10;;;;;;;15.20;13.07;;;7.60;89.50;;;;;;5037101;28;20496;-80
2021/03/07 11:37:38;;;;;;;13.00;11.50;;;7.60;88.70;;;;;;5045432;28;20349;-83
2021/03/07 11:40:10;;;;;;;12.50;11.30;;;7.60;90.10;;;;;;5070842;28;20295;-81
2021/03/07 11:42:41;;;;;;;13.15;11.75;;;7.70;89.80;;;;;;5032328;28;20457;-81
2021/03/07 11:45:14;;;;;;;13.33;12.03;;;7.60;89.10;;;;;;5053435;28;20213;-82
2021/03/07 11:47:40;;;;;;;12.10;10.93;;;7.60;89.20;;;;;;5044727;28;20472;-82
2021/03/07 11:50:10;;;;;;;13.10;11.75;;;7.30;89.40;;;;;;5036209;28;20194;-81
2021/03/07 11:52:36;;;;;;;13.75;12.55;;;7.50;89.30;;;;;;5021535;28;20233;-82
2021/03/07 11:55:05;;;;;;;14.27;12.40;;;7.60;89.80;;;;;;5032519;28;20301;-82
2021/03/07 11:57:31;;;;;;;12.85;11.50;;;7.70;88.50;;;;;;5032356;28;20526;-82
2021/03/07 12:00:00;;;;;;;13.98;12.57;;;7.40;88.60;;;;;;5033205;28;20773;-81
2021/03/07 12:02:26;;;;;;;14.23;12.77;;;7.40;90.00;;;;;;5024706;28;20280;-81
2021/03/07 12:04:52;;;;;;;12.05;10.85;;;7.40;90.50;;;;;;5031823;28;20221;-81
2021/03/07 12:07:23;;;;;;;15.90;13.82;;;7.40;90.90;;;;;;5032510;28;20608;-83
2021/03/07 12:09:52;;;;;;;16.10;13.82;;;7.30;89.20;;;;;;5033356;28;20260;-82
2021/03/07 12:12:20;;;;;;;16.13;13.88;;;7.30;89.70;;;;;;5048005;28;20519;-81
2021/03/07 12:14:48;;;;;;;14.77;12.57;;;7.30;88.50;;;;;;5032233;28;20208;-84
2021/03/07 12:17:16;;;;;;;14.75;13.35;;;7.40;89.20;;;;;;5032768;28;20533;-82
2021/03/07 12:19:48;;;;;;;15.75;14.20;;;7.40;88.30;;;;;;5032254;28;20676;-81
2021/03/07 12:22:17;;;;;;;17.42;15.65;;;7.40;88.30;;;;;;5031948;28;20209;-82
2021/03/07 12:24:43;;;;;;;15.48;12.85;;;7.20;87.70;;;;;;5015662;28;20217;-82
2021/03/07 12:27:11;;;;;;;15.57;14.07;;;7.30;88.70;;;;;;5005933;28;20193;-82
2021/03/07 12:29:42;;;;;;;14.95;13.35;;;7.50;88.00;;;;;;5030506;28;20428;-82
2021/03/07 12:32:10;;;;;;;17.77;13.68;;;7.60;88.20;;;;;;5025242;28;20235;-82
2021/03/07 12:34:40;;;;;;;16.20;13.00;;;7.60;87.00;;;;;;5031932;28;20280;-81
2021/03/07 12:37:11;;;;;;;16.58;15.02;;;7.60;86.40;;;;;;5015224;28;20284;-82
2021/03/07 12:39:40;;;;;;;17.35;15.75;;;7.50;85.30;;;;;;5006673;28;20206;-82
2021/03/07 12:42:10;;;;;;;20.48;16.17;;;7.50;83.70;;;;;;5031741;28;20208;-82
2021/03/07 12:44:36;;;;;;;14.90;13.48;;;7.30;83.60;;;;;;5031610;28;20208;-82
2021/03/07 12:47:05;;;;;;;15.05;13.75;;;7.30;83.50;;;;;;5032297;28;20204;-82
2021/03/07 12:49:31;;;;;;;14.17;12.80;;;7.40;84.00;;;;;;5032139;28;20615;-82
2021/03/07 12:51:59;;;;;;;15.17;13.33;;;7.40;84.70;;;;;;5031608;28;20495;-83
2021/03/07 12:54:30;;;;;;;13.70;11.43;;;7.60;85.10;;;;;;5031919;28;20497;-82
2021/03/07 12:56:56;;;;;;;9.90;9.10;;;7.70;84.90;;;;;;5034213;28;20232;-82
2021/03/07 12:59:25;;;;;;;11.32;10.23;;;7.70;83.90;;;;;;5035417;28;20189;-82